Time;durP1;ratioP1;P1;durP2;ratioP2;P2;SDS_P1;SDS_P2;PMS_P1;PMS_P2;Temp;Humidity;BMP_temperature;BMP_pressure;BME280_temperature;BME280_humidity;BME280_pressure;Samples;Min_cycle;Max_cycle;Signal;HPM_P1;HPM_P2
2022/06/02 00:00:13;;;;;;;4.97;2.40;;;;;;;23.20;51.35;98004.84;5393858;26;20114;-77
2022/06/02 00:03:12;;;;;;;5.55;2.35;;;;;;;23.67;50.14;98008.22;5413671;26;20082;-77
2022/06/02 00:06:00;;;;;;;4.50;2.10;;;;;;;23.54;50.34;98003.28;5414268;26;20047;-78
2022/06/02 00:08:50;;;;;;;6.87;2.70;;;;;;;23.38;50.66;97993.38;5413520;26;20117;-77
2022/06/02 00:11:47;;;;;;;6.75;2.30;;;;;;;23.73;49.90;97997.09;5414013;26;20107;-77
2022/06/02 00:14:23;;;;;;;4.53;2.42;;;;;;;23.54;50.90;97990.09;5393809;26;20115;-77
2022/06/02 00:17:22;;;;;;;6.68;2.58;;;;;;;23.32;51.23;97986.09;5393416;26;20125;-77
2022/06/02 00:19:57;;;;;;;6.20;2.30;;;;;;;21.77;57.84;97971.56;5413712;26;20434;-77
2022/06/02 00:22:30;;;;;;;5.50;2.45;;;;;;;23.31;52.69;97966.00;5393813;26;20067;-77
2022/06/02 00:25:22;;;;;;;5.15;2.40;;;;;;;23.30;52.63;97966.16;5414099;26;20071;-77
2022/06/02 00:28:30;;;;;;;5.95;2.58;;;;;;;24.30;49.10;97965.13;5413976;26;20126;-77
2022/06/02 00:31:17;;;;;;;;;;;;;;;23.85;49.84;97974.81;5343373;26;20131;-77
2022/06/02 00:34:14;;;;;;;4.80;2.50;;;;;;;23.07;52.84;97970.94;5355304;26;20298;-77
2022/06/02 00:37:20;;;;;;;4.70;2.50;;;;;;;22.21;55.58;97964.97;5393360;26;20468;-77
2022/06/02 00:39:49;;;;;;;4.87;2.30;;;;;;;21.66;57.18;97970.75;5413851;26;20099;-77
2022/06/02 00:42:37;;;;;;;7.10;2.87;;;;;;;20.53;61.70;97944.84;5413773;26;20098;-77
2022/06/02 00:45:09;;;;;;;;;;;;;;;20.26;62.98;97927.81;5393650;26;20517;-77
2022/06/02 00:47:48;;;;;;;6.03;2.80;;;;;;;20.96;61.50;97940.19;5413877;26;19971;-77
2022/06/02 00:50:39;;;;;;;5.93;2.72;;;;;;;21.70;58.89;97942.44;5413911;26;20067;-77
2022/06/02 00:53:14;;;;;;;6.70;2.90;;;;;;;23.02;54.70;97957.41;5413421;26;20121;-77
2022/06/02 00:59:19;;;;;;;6.43;3.00;;;;;;;22.74;55.50;97959.97;5413270;26;20056;-77
2022/06/02 01:01:46;;;;;;;6.78;3.10;;;;;;;23.73;52.75;97965.47;5393520;26;20502;-77
2022/06/02 01:04:17;;;;;;;6.00;2.85;;;;;;;23.63;52.79;97975.25;5414478;26;20099;-77
2022/06/02 01:06:58;;;;;;;6.70;2.62;;;;;;;21.77;61.18;97964.53;5413562;26;20111;-78
2022/06/02 01:09:34;;;;;;;4.80;2.20;;;;;;;20.95;63.37;97967.38;5415943;26;20103;-77
2022/06/02 01:12:21;;;;;;;6.78;3.00;;;;;;;20.05;67.94;97992.47;5415771;26;20047;-77
2022/06/02 01:15:16;;;;;;;6.00;2.70;;;;;;;20.80;64.55;98037.69;5413727;26;20079;-77
2022/06/02 01:17:51;;;;;;;10.60;3.00;;;;;;;19.56;73.78;98033.91;5413547;26;20537;-77
2022/06/02 01:20:38;;;;;;;7.05;3.40;;;;;;;19.28;77.76;98078.88;5413237;26;20063;-77
2022/06/02 01:23:14;;;;;;;;;;;;;;;19.52;78.48;98078.72;5413959;26;20058;-77
2022/06/02 01:25:53;;;;;;;9.23;3.28;;;;;;;18.89;82.87;98067.06;5413362;26;20235;-77
2022/06/02 01:28:23;;;;;;;10.10;3.55;;;;;;;18.36;86.97;98053.59;5413519;26;20111;-77
2022/06/02 01:30:51;;;;;;;14.48;4.28;;;;;;;18.68;86.07;98067.75;5413312;26;20391;-76
2022/06/02 01:33:33;;;;;;;12.60;5.05;;;;;;;17.98;89.85;98062.50;5392968;26;20052;-77
2022/06/02 01:36:20;;;;;;;12.30;4.40;;;;;;;18.13;90.04;98077.03;5413488;26;20036;-76
2022/06/02 01:39:08;;;;;;;11.30;4.70;;;;;;;18.84;87.07;98080.50;5413122;26;20063;-76
2022/06/02 01:41:59;;;;;;;10.95;4.20;;;;;;;19.22;85.65;98100.25;5413124;26;20114;-77
2022/06/02 01:44:33;;;;;;;14.23;4.32;;;;;;;19.69;82.93;98098.38;5380331;26;20600;-77
2022/06/02 01:47:04;;;;;;;11.35;4.68;;;;;;;20.72;78.22;98110.91;5393127;26;20103;-77
2022/06/02 01:49:53;;;;;;;9.73;3.75;;;;;;;20.70;78.27;98104.97;5413304;26;20695;-77
2022/06/02 01:52:36;;;;;;;9.68;4.40;;;;;;;21.50;74.22;98078.09;5393747;26;20087;-77
2022/06/02 01:55:02;;;;;;;10.60;3.87;;;;;;;21.24;75.57;98071.59;5393859;26;20077;-77
2022/06/02 01:57:29;;;;;;;10.15;4.00;;;;;;;22.00;72.62;98061.44;5414427;26;20103;-78
2022/06/02 02:00:08;;;;;;;9.52;3.87;;;;;;;21.89;72.57;98044.03;5414444;26;20078;-77
2022/06/02 02:02:38;;;;;;;12.18;3.95;;;;;;;23.14;67.91;98053.62;5414160;26;20105;-77
2022/06/02 02:05:30;;;;;;;11.50;4.30;;;;;;;23.34;66.44;98042.03;5414525;26;20110;-77
2022/06/02 02:08:19;;;;;;;9.20;4.05;;;;;;;24.08;63.15;98048.16;5413993;26;20048;-77
2022/06/02 02:11:19;;;;;;;8.98;3.85;;;;;;;23.17;66.11;98044.59;5414208;26;20086;-77
2022/06/02 02:14:00;;;;;;;11.35;3.72;;;;;;;23.05;66.88;98043.97;5414543;26;20465;-77
2022/06/02 02:16:54;;;;;;;8.73;3.78;;;;;;;23.50;65.76;98040.56;5394089;26;20754;-77
2022/06/02 02:19:38;;;;;;;10.30;4.25;;;;;;;23.75;64.54;98047.00;5390318;26;20406;-77
2022/06/02 02:22:14;;;;;;;13.48;4.10;;;;;;;24.00;63.31;98043.63;5414080;26;20130;-77
2022/06/02 02:25:14;;;;;;;12.10;3.80;;;;;;;23.66;64.49;98046.06;5414429;26;20116;-77
2022/06/02 02:28:16;;;;;;;9.07;3.78;;;;;;;23.08;66.16;98047.16;5394153;26;20110;-77
2022/06/02 02:30:46;;;;;;;8.13;3.95;;;;;;;23.23;65.88;98042.22;5413906;26;20535;-77
2022/06/02 02:33:41;;;;;;;9.00;3.72;;;;;;;23.32;65.81;98048.44;5414431;26;20075;-78
2022/06/02 02:36:28;;;;;;;8.48;3.87;;;;;;;23.69;64.19;98058.09;5413943;26;20114;-77
2022/06/02 02:38:58;;;;;;;11.23;4.20;;;;;;;23.04;66.23;98047.56;5414332;26;20133;-78
2022/06/02 02:41:34;;;;;;;8.18;3.80;;;;;;;22.83;67.02;98046.91;5394247;26;20074;-77
2022/06/02 02:44:15;;;;;;;9.68;3.97;;;;;;;23.22;65.66;98048.47;5414032;26;20080;-77
2022/06/02 02:46:54;;;;;;;10.73;4.45;;;;;;;22.93;66.50;98040.66;5394245;26;20119;-77
2022/06/02 02:49:31;;;;;;;10.32;4.25;;;;;;;23.16;66.25;98027.97;5394162;26;20051;-78
2022/06/02 02:52:22;;;;;;;10.98;4.15;;;;;;;22.99;66.92;98026.13;5389490;26;20462;-78
2022/06/02 02:55:22;;;;;;;8.48;3.90;;;;;;;21.83;71.12;98039.34;5390219;26;20080;-78
2022/06/02 02:58:04;;;;;;;11.43;4.20;;;;;;;23.58;63.51;98049.44;5390961;26;20071;-77
2022/06/02 03:00:52;;;;;;;10.18;4.20;;;;;;;22.43;68.55;98040.88;5391400;26;20052;-78
2022/06/02 03:03:23;;;;;;;9.20;4.37;;;;;;;21.95;70.61;98041.69;5389692;26;20090;-77
2022/06/02 03:06:21;;;;;;;12.30;4.28;;;;;;;22.80;67.73;98040.97;5389673;26;20068;-78
2022/06/02 03:09:05;;;;;;;8.48;4.15;;;;;;;22.90;67.31;98045.41;5391535;26;20112;-78
2022/06/02 03:11:57;;;;;;;8.85;4.05;;;;;;;23.66;63.52;98056.59;5391093;26;20051;-78
2022/06/02 03:14:36;;;;;;;9.93;4.45;;;;;;;23.36;64.22;98062.97;5384809;26;142424;-78
2022/06/02 03:17:16;;;;;;;14.75;4.53;;;;;;;23.41;64.21;98070.44;5391631;26;20090;-78
2022/06/02 03:19:57;;;;;;;12.00;4.10;;;;;;;23.28;64.55;98079.47;5390981;26;20093;-77
2022/06/02 03:22:51;;;;;;;8.65;3.80;;;;;;;22.99;66.02;98078.75;5371362;26;20055;-78
2022/06/02 03:25:54;;;;;;;10.02;4.10;;;;;;;22.26;68.40;98085.44;5388220;26;20115;-78
2022/06/02 03:28:36;;;;;;;8.02;3.95;;;;;;;22.69;67.43;98091.09;5389287;26;20111;-78
2022/06/02 03:31:27;;;;;;;11.05;3.75;;;;;;;23.15;65.81;98091.28;5391382;26;20115;-78
2022/06/02 03:34:26;;;;;;;7.47;3.50;;;;;;;23.48;64.78;98097.81;5389872;26;20569;-77
2022/06/02 03:36:57;;;;;;;8.18;3.60;;;;;;;23.91;62.74;98095.41;5391502;26;20040;-78
2022/06/02 03:39:36;;;;;;;7.85;3.72;;;;;;;23.84;63.29;98106.69;5390952;26;20127;-78
2022/06/02 03:42:18;;;;;;;7.70;3.78;;;;;;;23.97;62.87;98111.63;5391492;26;20107;-77
2022/06/02 03:45:08;;;;;;;7.95;3.60;;;;;;;24.00;62.64;98111.31;5391529;26;20375;-77
2022/06/02 03:48:06;;;;;;;9.57;4.00;;;;;;;24.37;61.13;98112.06;5387354;26;20504;-78
2022/06/02 03:50:56;;;;;;;8.70;3.72;;;;;;;24.49;60.54;98115.31;5391501;26;20115;-77
2022/06/02 03:53:36;;;;;;;8.75;3.90;;;;;;;24.36;61.18;98123.59;5387130;26;20080;-77
2022/06/02 03:56:24;;;;;;;6.80;3.47;;;;;;;23.86;62.80;98123.19;5370553;26;20047;-76
2022/06/02 03:59:05;;;;;;;8.77;3.72;;;;;;;24.43;60.96;98129.91;5368563;26;20101;-77
2022/06/02 04:01:37;;;;;;;9.23;3.67;;;;;;;24.50;60.81;98130.97;5366939;26;20079;-78
2022/06/02 04:04:43;;;;;;;9.10;3.70;;;;;;;24.04;62.47;98129.34;5368783;26;20403;-78
2022/06/02 04:07:19;;;;;;;7.07;3.45;;;;;;;23.51;64.67;98124.72;5367025;26;20139;-77
2022/06/02 04:09:52;;;;;;;7.30;3.73;;;;;;;24.01;62.60;98129.59;5368691;26;20060;-78
2022/06/02 04:13:37;;;;;;;7.15;3.35;;;;;;;23.42;64.42;98127.38;5368514;26;20104;-77
2022/06/02 04:16:03;;;;;;;11.50;3.97;;;;;;;23.23;65.53;98129.09;5348747;26;20482;-77
2022/06/02 04:18:50;;;;;;;10.18;3.55;;;;;;;23.54;65.37;98128.84;5368482;26;20114;-78
2022/06/02 04:21:51;;;;;;;7.35;3.50;;;;;;;23.41;65.04;98125.72;5366756;26;20051;-77
2022/06/02 04:24:30;;;;;;;8.65;3.33;;;;;;;23.20;66.04;98126.75;5368621;26;20060;-78
2022/06/02 04:27:37;;;;;;;7.45;3.28;;;;;;;23.06;66.34;98135.91;5367255;26;20068;-77
2022/06/02 04:30:23;;;;;;;7.90;3.22;;;;;;;25.23;58.87;98140.47;5312173;26;20131;-77
2022/06/02 04:32:59;;;;;;;6.35;3.08;;;;;;;25.46;57.83;98138.12;5367104;26;20108;-78
2022/06/02 04:35:29;;;;;;;4.90;2.70;;;;;;;26.83;53.72;98141.34;5368125;26;20061;-77
2022/06/02 04:38:23;;;;;;;8.00;3.30;;;;;;;27.43;51.90;98143.59;5368523;26;20115;-78
2022/06/02 04:41:24;;;;;;;6.55;3.08;;;;;;;26.16;54.60;98138.75;5368337;26;20131;-78
2022/06/02 04:44:07;;;;;;;5.72;2.70;;;;;;;26.88;52.66;98144.31;5368134;26;20043;-77
2022/06/02 04:46:54;;;;;;;5.37;2.70;;;;;;;27.45;51.17;98139.78;5367020;26;20115;-78
2022/06/02 04:49:43;;;;;;;5.12;2.70;;;;;;;27.70;50.82;98139.75;5367963;26;20087;-78
2022/06/02 04:52:52;;;;;;;6.18;2.92;;;;;;;29.28;46.96;98140.00;5385637;26;20496;-77
2022/06/02 04:55:37;;;;;;;5.97;3.08;;;;;;;29.89;44.97;98143.34;5370920;26;20419;-77
2022/06/02 04:58:15;;;;;;;7.72;3.40;;;;;;;29.66;44.49;98145.25;5393089;26;20398;-78
2022/06/02 05:00:51;;;;;;;6.00;2.92;;;;;;;28.33;47.80;98144.91;5393698;26;20065;-78
2022/06/02 05:03:35;;;;;;;6.00;3.10;;;;;;;26.81;52.81;98144.16;5413548;26;20047;-78
2022/06/02 05:06:16;;;;;;;5.40;2.83;;;;;;;27.28;51.56;98138.16;5413923;26;20044;-77
2022/06/02 05:08:54;;;;;;;6.85;2.90;;;;;;;27.99;49.98;98141.78;5393371;26;20135;-78
2022/06/02 05:11:58;;;;;;;7.82;3.30;;;;;;;30.20;44.17;98155.56;5392971;26;20130;-78
2022/06/02 05:14:54;;;;;;;6.03;3.03;;;;;;;30.72;42.46;98160.66;5413688;26;20461;-78
2022/06/02 05:17:45;;;;;;;6.22;2.90;;;;;;;29.16;45.65;98169.88;5413205;26;20099;-78
2022/06/02 05:20:31;;;;;;;8.50;3.60;;;;;;;27.25;50.93;98165.84;5413524;26;20099;-78
2022/06/02 05:23:35;;;;;;;7.45;3.78;;;;;;;26.31;53.50;98154.81;5413612;26;20075;-78
2022/06/02 05:26:13;;;;;;;6.82;3.40;;;;;;;25.59;57.52;98146.44;5413469;26;20055;-78
2022/06/02 05:28:43;;;;;;;7.50;3.40;;;;;;;26.02;56.85;98168.44;5394502;26;20529;-78
2022/06/02 05:31:39;;;;;;;6.03;3.10;;;;;;;26.37;54.43;98176.19;5414653;26;20218;-77
2022/06/02 05:34:19;;;;;;;9.02;3.55;;;;;;;26.12;55.55;98180.53;5375892;26;20047;-77
2022/06/02 05:37:10;;;;;;;6.35;3.08;;;;;;;25.95;56.04;98184.12;5394528;26;20111;-77
2022/06/02 05:40:14;;;;;;;7.22;3.45;;;;;;;26.69;53.56;98193.94;5414231;26;20155;-77
2022/06/02 05:42:48;;;;;;;7.32;3.15;;;;;;;25.68;56.39;98193.06;5414419;26;20409;-77
2022/06/02 05:45:21;;;;;;;7.05;3.28;;;;;;;26.74;52.89;98206.69;5394085;26;20112;-78
2022/06/02 05:48:10;;;;;;;6.43;3.10;;;;;;;26.38;54.58;98201.66;5394381;26;20051;-78
2022/06/02 05:50:58;;;;;;;5.90;2.87;;;;;;;27.18;51.54;98206.38;5414610;26;20044;-78
2022/06/02 05:53:38;;;;;;;6.32;3.08;;;;;;;26.36;53.37;98213.34;5367602;26;20112;-77
2022/06/02 05:56:26;;;;;;;5.97;2.90;;;;;;;26.09;54.87;98217.91;5367813;26;20371;-77
2022/06/02 05:59:03;;;;;;;;;;;;;;;28.74;48.15;98222.47;5369412;26;20072;-77
2022/06/02 06:01:46;;;;;;;7.93;3.12;;;;;;;27.57;51.21;98227.72;5367366;26;20023;-78
2022/06/02 06:04:17;;;;;;;5.55;2.75;;;;;;;30.00;45.21;98229.00;5367891;26;20078;-77
2022/06/02 06:07:00;;;;;;;5.62;2.80;;;;;;;29.88;44.89;98229.47;5368533;26;20200;-77
2022/06/02 06:09:32;;;;;;;6.28;2.90;;;;;;;30.84;42.89;98237.38;5367511;26;20758;-77
2022/06/02 06:12:02;;;;;;;6.22;2.80;;;;;;;32.34;39.58;98232.59;5367407;26;20164;-79
2022/06/02 06:14:59;;;;;;;6.25;2.42;;;;;;;31.51;40.80;98250.31;5368308;26;20328;-79
2022/06/02 06:17:54;;;;;;;7.37;2.70;;;;;;;30.08;43.81;98248.37;5361997;26;20067;-78
2022/06/02 06:20:39;;;;;;;4.72;2.50;;;;;;;28.83;46.69;98249.78;5368336;26;20066;-80
2022/06/02 06:23:38;;;;;;;5.85;2.50;;;;;;;29.38;45.48;98244.22;5368587;26;20517;-79
2022/06/02 06:26:34;;;;;;;6.35;2.90;;;;;;;29.47;44.89;98246.81;5368595;26;20104;-79
2022/06/02 06:29:36;;;;;;;6.90;2.80;;;;;;;29.73;44.10;98252.56;5352919;26;20063;-79
2022/06/02 06:32:10;;;;;;;7.97;2.85;;;;;;;29.33;45.27;98257.22;5368606;26;20075;-77
2022/06/02 06:34:37;;;;;;;6.60;2.90;;;;;;;29.14;45.86;98255.06;5368394;26;20048;-76
2022/06/02 06:37:32;;;;;;;6.10;3.00;;;;;;;28.52;46.69;98253.28;5368738;26;20100;-77
2022/06/02 06:40:39;;;;;;;7.22;2.70;;;;;;;27.62;49.91;98258.00;5367440;26;20074;-77
2022/06/02 06:43:31;;;;;;;5.20;2.85;;;;;;;28.12;48.76;98261.38;5367950;26;20127;-79
2022/06/02 06:46:08;;;;;;;4.90;2.58;;;;;;;28.33;46.64;98268.81;5368556;26;20047;-78
2022/06/02 06:48:38;;;;;;;5.30;2.50;;;;;;;27.50;49.58;98267.28;5368169;26;20060;-78
2022/06/02 06:51:14;;;;;;;9.07;2.62;;;;;;;28.65;47.86;98276.59;5366972;26;20064;-78
2022/06/02 06:53:59;;;;;;;4.63;2.67;;;;;;;28.59;47.22;98284.44;5368756;26;20082;-78
2022/06/02 06:56:35;;;;;;;6.53;2.70;;;;;;;28.29;47.85;98291.38;5368223;26;20119;-78
2022/06/02 06:59:30;;;;;;;7.10;3.15;;;;;;;28.16;48.43;98303.31;5366935;26;20121;-78
2022/06/02 07:02:05;;;;;;;7.93;2.95;;;;;;;27.71;50.94;98303.09;5368493;26;20085;-78
2022/06/02 07:05:01;;;;;;;8.52;3.40;;;;;;;27.16;51.01;98304.56;5368171;26;20061;-78
2022/06/02 07:07:55;;;;;;;7.32;3.08;;;;;;;26.60;51.92;98307.88;5368665;26;20111;-78
2022/06/02 07:10:31;;;;;;;5.80;3.15;;;;;;;26.73;53.67;98306.44;5366717;26;20080;-79
2022/06/02 07:13:19;;;;;;;8.35;3.10;;;;;;;26.85;51.54;98304.31;5367717;26;20111;-78
2022/06/02 07:15:59;;;;;;;5.47;2.90;;;;;;;28.08;46.85;98305.19;5370381;26;20047;-78
2022/06/02 07:19:17;;;;;;;7.43;3.08;;;;;;;28.85;45.39;98297.41;5369658;26;20444;-78
2022/06/02 07:21:49;;;;;;;5.85;2.87;;;;;;;27.94;45.92;98288.94;5345257;26;20375;-78
2022/06/02 07:24:38;;;;;;;6.53;3.28;;;;;;;28.44;45.31;98293.13;5371353;26;20069;-78
2022/06/02 07:27:13;;;;;;;6.82;2.85;;;;;;;27.53;46.13;98297.94;5388205;26;20066;-78
2022/06/02 07:29:58;;;;;;;5.97;2.85;;;;;;;26.04;47.99;98293.37;5369805;26;20111;-78
2022/06/02 07:32:44;;;;;;;6.57;3.05;;;;;;;26.98;49.31;98283.47;5369364;26;20108;-78
2022/06/02 07:35:48;;;;;;;8.40;2.87;;;;;;;25.34;52.05;98283.66;5370885;26;20193;-78
2022/06/02 07:38:57;;;;;;;5.78;2.97;;;;;;;26.42;48.99;98284.16;5370256;26;20526;-78
2022/06/02 07:41:24;;;;;;;5.20;2.50;;;;;;;26.84;48.45;98278.00;5369036;26;20103;-78
2022/06/02 07:44:26;;;;;;;4.18;2.12;;;;;;;26.99;47.39;98282.47;5369849;26;20072;-78
2022/06/02 07:47:30;;;;;;;4.70;2.50;;;;;;;26.18;50.79;98296.28;5370754;26;20107;-78
2022/06/02 07:50:09;;;;;;;4.55;2.40;;;;;;;25.13;50.15;98283.12;5370940;26;20105;-78
2022/06/02 07:53:03;;;;;;;5.32;2.50;;;;;;;25.50;50.19;98288.22;5394773;26;20091;-78
2022/06/02 07:55:35;;;;;;;4.40;2.10;;;;;;;25.39;51.22;98275.25;5414656;26;20063;-78
2022/06/02 07:58:02;;;;;;;5.35;2.10;;;;;;;25.78;48.94;98273.09;5394023;26;20063;-78
2022/06/02 08:00:36;;;;;;;6.30;1.95;;;;;;;24.69;49.18;98274.25;5414141;26;20103;-78
2022/06/02 08:03:12;;;;;;;3.55;1.80;;;;;;;25.24;49.50;98290.00;5413880;26;20053;-77
2022/06/02 08:05:41;;;;;;;3.75;1.87;;;;;;;25.01;50.05;98293.09;5413522;26;20067;-77
2022/06/02 08:08:29;;;;;;;4.32;1.80;;;;;;;27.26;43.89;98297.28;5393404;26;20142;-77
2022/06/02 08:11:26;;;;;;;5.15;2.10;;;;;;;27.45;43.79;98308.56;5393767;26;20425;-77
2022/06/02 08:14:14;;;;;;;4.63;1.77;;;;;;;27.14;44.43;98295.13;5390997;26;20058;-77
2022/06/02 08:16:49;;;;;;;4.22;1.77;;;;;;;28.78;41.16;98308.72;5413718;26;20063;-77
2022/06/02 08:19:42;;;;;;;6.45;1.95;;;;;;;28.10;42.72;98311.13;5413666;26;20055;-77
2022/06/02 08:22:12;;;;;;;3.15;1.67;;;;;;;29.17;40.89;98307.84;5413614;26;20086;-77
2022/06/02 08:25:14;;;;;;;2.65;1.60;;;;;;;29.30;39.29;98300.09;5414613;26;20657;-80
2022/06/02 08:27:58;;;;;;;4.10;1.70;;;;;;;28.69;40.85;98299.13;5413824;26;20077;-80
2022/06/02 08:30:44;;;;;;;5.72;1.60;;;;;;;29.42;38.89;98303.16;5393989;26;20077;-80
2022/06/02 08:33:32;;;;;;;3.75;1.70;;;;;;;29.56;37.36;98307.75;5413874;26;20123;-78
2022/06/02 08:36:25;;;;;;;3.72;1.65;;;;;;;29.22;40.43;98312.62;5413836;26;20075;-79
2022/06/02 08:39:10;;;;;;;4.03;1.73;;;;;;;29.27;39.13;98313.75;5414108;26;20126;-80
2022/06/02 08:41:52;;;;;;;3.12;1.60;;;;;;;28.61;39.72;98319.63;5414534;26;20672;-79
2022/06/02 08:44:49;;;;;;;2.12;1.42;;;;;;;29.64;37.09;98334.22;5414564;26;20110;-78
2022/06/02 08:47:44;;;;;;;3.15;1.70;;;;;;;28.64;38.90;98327.22;5394127;26;20399;-78
2022/06/02 08:50:30;;;;;;;2.60;1.45;;;;;;;27.01;43.34;98329.97;5394690;26;20071;-78
2022/06/02 08:53:15;;;;;;;4.62;1.62;;;;;;;28.68;40.18;98323.22;5394527;26;20056;-78
2022/06/02 08:55:49;;;;;;;3.55;1.50;;;;;;;29.24;39.63;98335.38;5414754;26;20127;-79
2022/06/02 08:58:58;;;;;;;3.65;1.70;;;;;;;28.57;39.81;98348.31;5416295;26;20338;-79
2022/06/02 09:01:43;;;;;;;3.17;1.50;;;;;;;29.31;39.33;98348.75;5417191;26;20074;-78
2022/06/02 09:05:00;;;;;;;3.67;1.70;;;;;;;29.39;39.12;98338.06;5418649;26;20101;-79
2022/06/02 09:07:39;;;;;;;2.30;1.40;;;;;;;29.21;37.73;98335.69;5335836;26;20094;-78
2022/06/02 09:10:24;;;;;;;3.80;1.52;;;;;;;28.97;38.39;98336.69;5414269;26;20054;-79
2022/06/02 09:13:25;;;;;;;3.33;1.62;;;;;;;27.92;40.45;98340.50;5394447;26;20111;-79
2022/06/02 09:16:15;;;;;;;2.53;1.50;;;;;;;28.60;39.24;98336.50;5414520;26;20314;-78
2022/06/02 09:19:01;;;;;;;3.60;1.48;;;;;;;29.36;38.21;98336.59;5414648;26;20390;-79
2022/06/02 09:21:53;;;;;;;2.75;1.45;;;;;;;29.65;36.34;98343.84;5415814;26;20058;-78
2022/06/02 09:24:33;;;;;;;4.20;1.60;;;;;;;29.96;36.49;98337.59;5416575;26;20060;-78
2022/06/02 09:27:35;;;;;;;3.22;1.50;;;;;;;29.45;39.24;98340.00;5397242;26;20063;-78
2022/06/02 09:30:12;;;;;;;2.83;1.25;;;;;;;29.05;37.16;98330.50;5417392;26;20020;-78
2022/06/02 09:32:58;;;;;;;2.25;1.27;;;;;;;29.60;36.57;98332.94;5400502;26;20102;-79
2022/06/02 09:35:27;;;;;;;1.35;1.10;;;;;;;29.35;37.04;98336.78;5395693;26;20063;-78
2022/06/02 09:38:41;;;;;;;3.65;1.40;;;;;;;28.68;37.86;98337.31;5393312;26;20366;-77
2022/06/02 09:41:45;;;;;;;3.78;1.30;;;;;;;27.94;40.17;98339.34;5416343;26;20057;-78
2022/06/02 09:44:54;;;;;;;1.50;1.20;;;;;;;29.17;40.89;98341.56;5393594;26;20453;-80
2022/06/02 09:47:45;;;;;;;3.05;1.62;;;;;;;29.53;36.51;98353.28;5414264;26;20103;-79
2022/06/02 09:50:28;;;;;;;2.85;1.25;;;;;;;28.95;38.27;98348.50;5394155;26;20062;-79
2022/06/02 09:53:17;;;;;;;2.28;1.20;;;;;;;30.15;36.27;98354.91;5413620;26;20110;-79
2022/06/02 09:56:06;;;;;;;4.47;1.83;;;;;;;30.64;34.06;98349.06;5414211;26;20553;-78
2022/06/02 09:58:55;;;;;;;2.47;1.50;;;;;;;31.63;33.61;98356.28;5413737;26;20119;-78
2022/06/02 10:01:47;;;;;;;2.53;1.27;;;;;;;31.47;34.83;98350.38;5414154;26;20110;-78
2022/06/02 10:04:38;;;;;;;4.90;1.37;;;;;;;30.95;32.68;98354.97;5385216;26;20117;-78
2022/06/02 10:07:24;;;;;;;2.45;1.50;;;;;;;30.62;33.88;98361.69;5393353;26;20047;-77
2022/06/02 10:09:54;;;;;;;2.37;1.52;;;;;;;30.90;33.84;98364.53;5414227;26;20378;-78
2022/06/02 10:12:55;;;;;;;3.55;1.40;;;;;;;29.54;37.23;98360.22;5413483;26;20065;-78
2022/06/02 10:15:40;;;;;;;3.65;1.60;;;;;;;30.49;35.22;98370.31;5414350;26;20107;-79
2022/06/02 10:18:19;;;;;;;2.90;1.50;;;;;;;29.94;36.83;98363.56;5413538;26;20054;-79
2022/06/02 10:21:00;;;;;;;4.20;1.50;;;;;;;30.61;36.82;98366.19;5413963;26;20434;-80
2022/06/02 10:24:03;;;;;;;3.10;1.33;;;;;;;32.02;32.98;98365.66;5414352;26;20107;-78
2022/06/02 10:27:01;;;;;;;2.25;1.23;;;;;;;31.92;31.38;98371.34;5414050;26;20063;-79
2022/06/02 10:29:56;;;;;;;2.05;1.30;;;;;;;31.59;33.06;98363.03;5414319;26;20067;-78
2022/06/02 10:32:47;;;;;;;5.35;1.50;;;;;;;30.51;34.53;98365.62;5414331;26;20063;-78
2022/06/02 10:35:33;;;;;;;3.25;1.62;;;;;;;31.93;34.41;98362.31;5414019;26;20118;-79
2022/06/02 10:38:23;;;;;;;4.60;1.45;;;;;;;32.56;30.69;98358.81;5413966;26;20394;-79
2022/06/02 10:41:18;;;;;;;2.85;1.60;;;;;;;32.21;31.80;98369.47;5393383;26;20057;-79
2022/06/02 10:44:00;;;;;;;2.12;1.50;;;;;;;30.88;35.49;98354.06;5413825;26;20099;-79
2022/06/02 10:46:52;;;;;;;4.03;1.92;;;;;;;29.44;36.09;98351.66;5413948;26;20185;-79
2022/06/02 10:49:33;;;;;;;4.50;1.85;;;;;;;29.71;37.46;98355.63;5392919;26;20090;-78
2022/06/02 10:52:21;;;;;;;4.12;1.85;;;;;;;29.37;38.48;98351.53;5374507;26;20091;-79
2022/06/02 10:54:57;;;;;;;1.73;1.17;;;;;;;30.20;35.39;98356.03;5413745;26;20103;-79
2022/06/02 10:57:37;;;;;;;4.35;2.00;;;;;;;30.58;34.37;98350.56;5413668;26;20059;-79
2022/06/02 11:00:22;;;;;;;3.72;1.67;;;;;;;31.32;36.69;98355.78;5413943;26;20420;-79
2022/06/02 11:02:58;;;;;;;2.90;1.60;;;;;;;31.86;36.03;98361.41;5413274;26;20057;-79
2022/06/02 11:05:56;;;;;;;3.37;1.70;;;;;;;33.79;29.88;98355.03;5413983;26;20070;-78
2022/06/02 11:08:47;;;;;;;2.37;1.62;;;;;;;32.28;32.08;98361.50;5413561;26;20070;-78
2022/06/02 11:11:33;;;;;;;4.57;1.90;;;;;;;32.62;33.49;98369.53;5413794;26;20058;-78
2022/06/02 11:14:37;;;;;;;2.58;1.42;;;;;;;32.56;32.46;98353.47;5413806;26;20110;-78
2022/06/02 11:17:29;;;;;;;3.33;1.62;;;;;;;32.59;32.06;98353.91;5413307;26;20108;-79
2022/06/02 11:20:14;;;;;;;3.03;1.70;;;;;;;32.15;32.75;98349.72;5421700;26;20067;-80
2022/06/02 11:23:12;;;;;;;3.45;1.70;;;;;;;31.87;33.56;98359.56;5420876;26;20059;-79
2022/06/02 11:26:26;;;;;;;4.37;1.98;;;;;;;32.32;32.15;98355.59;5427690;26;20054;-80
2022/06/02 11:29:23;;;;;;;2.95;1.60;;;;;;;32.32;32.49;98352.91;5447396;26;20141;-79
2022/06/02 11:32:19;;;;;;;2.72;1.50;;;;;;;30.76;34.72;98339.56;5445334;26;20075;-79
2022/06/02 11:35:15;;;;;;;4.55;1.70;;;;;;;31.13;34.04;98353.69;5433657;26;20073;-80
2022/06/02 11:37:57;;;;;;;3.28;1.83;;;;;;;30.39;35.15;98343.97;5429838;26;20047;-79
2022/06/02 11:40:58;;;;;;;4.80;2.03;;;;;;;30.22;35.89;98346.00;5429322;26;20161;-79
2022/06/02 11:43:46;;;;;;;3.35;1.50;;;;;;;31.19;35.55;98345.78;5446328;26;20111;-79
2022/06/02 11:46:33;;;;;;;3.15;1.60;;;;;;;31.03;34.05;98351.34;5428761;26;20800;-79
2022/06/02 11:49:31;;;;;;;2.83;1.70;;;;;;;30.81;35.24;98359.28;5449591;26;20064;-79
2022/06/02 11:52:26;;;;;;;3.35;1.58;;;;;;;32.06;33.00;98353.56;5429124;26;20118;-79
2022/06/02 11:55:17;;;;;;;3.55;1.85;;;;;;;30.14;36.00;98353.25;5446730;26;20024;-80
2022/06/02 11:58:16;;;;;;;4.05;1.77;;;;;;;28.96;38.67;98350.16;5426124;26;20800;-80
2022/06/02 12:01:21;;;;;;;4.28;1.70;;;;;;;30.50;34.50;98361.31;5445359;26;20063;-79
2022/06/02 12:04:07;;;;;;;3.97;1.70;;;;;;;30.69;35.04;98354.63;5451414;26;20064;-81
2022/06/02 12:06:52;;;;;;;3.75;1.40;;;;;;;29.60;37.10;98350.72;5451115;26;20038;-79
2022/06/02 12:09:33;;;;;;;3.45;1.52;;;;;;;29.66;35.26;98358.81;5450624;26;20102;-79
2022/06/02 12:12:12;;;;;;;4.03;1.80;;;;;;;29.68;33.44;98356.00;5409182;26;20024;-80
2022/06/02 12:15:03;;;;;;;4.20;1.73;;;;;;;30.50;34.29;98353.34;5383621;26;20064;-80
2022/06/02 12:17:42;;;;;;;6.97;1.65;;;;;;;31.15;33.49;98355.16;5378027;26;20100;-80
2022/06/02 12:20:21;;;;;;;4.20;1.70;;;;;;;31.32;32.41;98361.13;5370430;26;20023;-80
2022/06/02 12:23:33;;;;;;;2.00;1.30;;;;;;;31.38;30.74;98365.69;5373530;26;20426;-80
2022/06/02 12:26:16;;;;;;;4.72;1.73;;;;;;;30.23;32.81;98358.31;5277203;27;20056;-79
2022/06/02 12:29:01;;;;;;;7.82;2.37;;;;;;;30.94;32.77;98357.78;5377374;26;20120;-80
2022/06/02 12:31:56;;;;;;;4.60;2.00;;;;;;;30.50;32.08;98354.16;5379678;26;20079;-80
2022/06/02 12:34:50;;;;;;;4.57;1.67;;;;;;;30.51;33.24;98360.31;5370493;26;20055;-79
2022/06/02 12:37:32;;;;;;;5.43;1.80;;;;;;;30.42;33.06;98358.78;5369052;26;20063;-79
2022/06/02 12:40:16;;;;;;;3.62;1.50;;;;;;;30.11;33.37;98357.09;5369192;26;20067;-79
2022/06/02 12:43:03;;;;;;;4.85;1.70;;;;;;;31.04;29.85;98359.16;5373251;26;20064;-81
2022/06/02 12:45:36;;;;;;;2.83;1.83;;;;;;;31.22;32.31;98361.44;5373452;26;20048;-81
2022/06/02 12:48:27;;;;;;;3.25;1.83;;;;;;;30.59;34.08;98367.38;5372073;26;20120;-81
2022/06/02 12:51:06;;;;;;;3.30;1.70;;;;;;;30.71;34.12;98369.41;5372171;26;20067;-81
2022/06/02 12:53:38;;;;;;;4.35;1.70;;;;;;;30.92;31.32;98365.97;5375250;26;20040;-80
2022/06/02 12:56:21;;;;;;;3.65;1.60;;;;;;;31.97;30.88;98370.75;5376377;26;20045;-80
2022/06/02 12:59:00;;;;;;;4.90;1.83;;;;;;;32.30;30.20;98370.16;5379186;26;20056;-81
2022/06/02 13:01:50;;;;;;;2.72;1.90;;;;;;;32.54;28.41;98367.03;5379174;26;20051;-81
2022/06/02 13:04:38;;;;;;;5.05;1.92;;;;;;;32.34;30.69;98374.12;5378359;26;20064;-80
2022/06/02 13:07:24;;;;;;;3.72;1.60;;;;;;;31.66;31.14;98365.72;5375858;26;20024;-80